sensor_id;sensor_type;location;lat;lon;timestamp;P1;durP1;ratioP1;P2;durP2;ratioP2
55732;SDS011;41637;52.364;9.910;2023-05-07T00:01:25;17.60;;;14.10;;
55732;SDS011;41637;52.364;9.910;2023-05-07T00:03:52;17.10;;;14.00;;
55732;SDS011;41637;52.364;9.910;2023-05-07T00:06:22;18.40;;;14.40;;
55732;SDS011;41637;52.364;9.910;2023-05-07T00:08:48;18.80;;;14.40;;
55732;SDS011;41637;52.364;9.910;2023-05-07T00:11:15;18.00;;;14.40;;
55732;SDS011;41637;52.364;9.910;2023-05-07T00:13:41;18.40;;;15.00;;
55732;SDS011;41637;52.364;9.910;2023-05-07T00:16:08;18.70;;;15.10;;
55732;SDS011;41637;52.364;9.910;2023-05-07T00:18:35;17.80;;;14.30;;
55732;SDS011;41637;52.364;9.910;2023-05-07T00:21:01;18.80;;;14.30;;
55732;SDS011;41637;52.364;9.910;2023-05-07T00:23:28;19.50;;;15.10;;
55732;SDS011;41637;52.364;9.910;2023-05-07T00:25:54;19.70;;;14.90;;
55732;SDS011;41637;52.364;9.910;2023-05-07T00:28:22;19.40;;;15.30;;
55732;SDS011;41637;52.364;9.910;2023-05-07T00:30:48;20.10;;;15.50;;
55732;SDS011;41637;52.364;9.910;2023-05-07T00:33:15;19.90;;;14.80;;
55732;SDS011;41637;52.364;9.910;2023-05-07T00:35:42;20.00;;;15.30;;
55732;SDS011;41637;52.364;9.910;2023-05-07T00:38:09;21.60;;;16.30;;
55732;SDS011;41637;52.364;9.910;2023-05-07T00:40:35;19.70;;;14.90;;
55732;SDS011;41637;52.364;9.910;2023-05-07T00:43:02;21.60;;;16.40;;
55732;SDS011;41637;52.364;9.910;2023-05-07T00:45:29;21.70;;;16.40;;
55732;SDS011;41637;52.364;9.910;2023-05-07T00:47:57;21.70;;;17.00;;
55732;SDS011;41637;52.364;9.910;2023-05-07T00:50:26;22.30;;;17.50;;
55732;SDS011;41637;52.364;9.910;2023-05-07T00:52:53;21.70;;;15.90;;
55732;SDS011;41637;52.364;9.910;2023-05-07T00:55:20;23.60;;;17.30;;
55732;SDS011;41637;52.364;9.910;2023-05-07T00:57:48;24.50;;;18.70;;
55732;SDS011;41637;52.364;9.910;2023-05-07T01:00:16;24.50;;;18.70;;
55732;SDS011;41637;52.364;9.910;2023-05-07T01:02:44;24.80;;;17.90;;
55732;SDS011;41637;52.364;9.910;2023-05-07T01:05:12;24.30;;;18.80;;
55732;SDS011;41637;52.364;9.910;2023-05-07T01:07:41;23.60;;;17.40;;
55732;SDS011;41637;52.364;9.910;2023-05-07T01:10:08;23.80;;;18.20;;
55732;SDS011;41637;52.364;9.910;2023-05-07T01:12:37;24.20;;;18.10;;
55732;SDS011;41637;52.364;9.910;2023-05-07T01:15:04;24.70;;;18.20;;
55732;SDS011;41637;52.364;9.910;2023-05-07T01:17:35;24.10;;;18.30;;
55732;SDS011;41637;52.364;9.910;2023-05-07T01:20:06;25.10;;;18.40;;
55732;SDS011;41637;52.364;9.910;2023-05-07T01:22:34;27.10;;;18.50;;
55732;SDS011;41637;52.364;9.910;2023-05-07T01:25:03;26.00;;;19.10;;
55732;SDS011;41637;52.364;9.910;2023-05-07T01:27:31;23.90;;;18.60;;
55732;SDS011;41637;52.364;9.910;2023-05-07T01:29:59;24.70;;;18.60;;
55732;SDS011;41637;52.364;9.910;2023-05-07T01:32:32;26.60;;;18.80;;
55732;SDS011;41637;52.364;9.910;2023-05-07T01:35:13;21.90;;;16.70;;
55732;SDS011;41637;52.364;9.910;2023-05-07T01:37:44;23.40;;;17.60;;
55732;SDS011;41637;52.364;9.910;2023-05-07T01:40:12;23.40;;;17.00;;
55732;SDS011;41637;52.364;9.910;2023-05-07T01:42:39;22.60;;;16.60;;
55732;SDS011;41637;52.364;9.910;2023-05-07T01:45:09;21.10;;;16.30;;
55732;SDS011;41637;52.364;9.910;2023-05-07T01:47:36;21.40;;;16.10;;
55732;SDS011;41637;52.364;9.910;2023-05-07T01:50:05;19.50;;;15.00;;
55732;SDS011;41637;52.364;9.910;2023-05-07T01:52:36;19.50;;;14.80;;
55732;SDS011;41637;52.364;9.910;2023-05-07T01:55:05;20.70;;;14.90;;
55732;SDS011;41637;52.364;9.910;2023-05-07T01:57:32;17.20;;;13.60;;
55732;SDS011;41637;52.364;9.910;2023-05-07T01:59:59;16.20;;;12.30;;
55732;SDS011;41637;52.364;9.910;2023-05-07T02:02:26;16.70;;;12.00;;
55732;SDS011;41637;52.364;9.910;2023-05-07T02:04:53;15.60;;;12.00;;
55732;SDS011;41637;52.364;9.910;2023-05-07T02:07:19;15.60;;;11.60;;
55732;SDS011;41637;52.364;9.910;2023-05-07T02:09:46;13.80;;;10.70;;
55732;SDS011;41637;52.364;9.910;2023-05-07T02:12:12;13.70;;;9.60;;
55732;SDS011;41637;52.364;9.910;2023-05-07T02:14:39;13.30;;;9.80;;
55732;SDS011;41637;52.364;9.910;2023-05-07T02:17:05;12.00;;;9.40;;
55732;SDS011;41637;52.364;9.910;2023-05-07T02:19:32;12.30;;;9.40;;
55732;SDS011;41637;52.364;9.910;2023-05-07T02:21:58;12.60;;;9.30;;
55732;SDS011;41637;52.364;9.910;2023-05-07T02:24:25;11.30;;;8.50;;
55732;SDS011;41637;52.364;9.910;2023-05-07T02:26:52;13.80;;;10.00;;
55732;SDS011;41637;52.364;9.910;2023-05-07T02:29:18;11.60;;;8.90;;
55732;SDS011;41637;52.364;9.910;2023-05-07T02:31:45;10.40;;;8.00;;
55732;SDS011;41637;52.364;9.910;2023-05-07T02:34:11;10.40;;;8.30;;
55732;SDS011;41637;52.364;9.910;2023-05-07T02:36:38;11.80;;;8.70;;
55732;SDS011;41637;52.364;9.910;2023-05-07T02:39:04;11.30;;;8.50;;
55732;SDS011;41637;52.364;9.910;2023-05-07T02:41:31;12.10;;;8.90;;
55732;SDS011;41637;52.364;9.910;2023-05-07T02:43:58;12.40;;;8.90;;
55732;SDS011;41637;52.364;9.910;2023-05-07T02:46:24;11.50;;;9.20;;
55732;SDS011;41637;52.364;9.910;2023-05-07T02:48:51;12.90;;;8.80;;
55732;SDS011;41637;52.364;9.910;2023-05-07T02:51:21;12.00;;;9.10;;
55732;SDS011;41637;52.364;9.910;2023-05-07T02:53:51;11.20;;;8.00;;
55732;SDS011;41637;52.364;9.910;2023-05-07T02:56:18;9.80;;;8.00;;
55732;SDS011;41637;52.364;9.910;2023-05-07T02:58:44;12.40;;;9.10;;
55732;SDS011;41637;52.364;9.910;2023-05-07T03:01:11;11.90;;;9.20;;
55732;SDS011;41637;52.364;9.910;2023-05-07T03:03:40;13.00;;;9.30;;
55732;SDS011;41637;52.364;9.910;2023-05-07T03:06:07;12.50;;;9.50;;
55732;SDS011;41637;52.364;9.910;2023-05-07T03:08:33;12.50;;;9.70;;
55732;SDS011;41637;52.364;9.910;2023-05-07T03:11:00;13.10;;;9.70;;
55732;SDS011;41637;52.364;9.910;2023-05-07T03:13:27;12.10;;;8.90;;
55732;SDS011;41637;52.364;9.910;2023-05-07T03:15:53;11.50;;;9.30;;
55732;SDS011;41637;52.364;9.910;2023-05-07T03:18:20;9.80;;;7.50;;
55732;SDS011;41637;52.364;9.910;2023-05-07T03:20:47;10.90;;;8.50;;
55732;SDS011;41637;52.364;9.910;2023-05-07T03:23:14;10.00;;;8.00;;
55732;SDS011;41637;52.364;9.910;2023-05-07T03:25:41;11.30;;;8.60;;
55732;SDS011;41637;52.364;9.910;2023-05-07T03:28:08;11.00;;;8.20;;
55732;SDS011;41637;52.364;9.910;2023-05-07T03:30:34;10.70;;;8.40;;
55732;SDS011;41637;52.364;9.910;2023-05-07T03:33:01;11.10;;;8.10;;
55732;SDS011;41637;52.364;9.910;2023-05-07T03:35:27;9.80;;;8.40;;
55732;SDS011;41637;52.364;9.910;2023-05-07T03:37:54;10.60;;;8.30;;
55732;SDS011;41637;52.364;9.910;2023-05-07T03:40:21;10.80;;;8.50;;
55732;SDS011;41637;52.364;9.910;2023-05-07T03:42:47;11.20;;;8.60;;
55732;SDS011;41637;52.364;9.910;2023-05-07T03:45:14;10.30;;;7.90;;
55732;SDS011;41637;52.364;9.910;2023-05-07T03:47:40;10.50;;;8.20;;
55732;SDS011;41637;52.364;9.910;2023-05-07T03:50:07;9.90;;;7.90;;
55732;SDS011;41637;52.364;9.910;2023-05-07T03:52:35;9.80;;;7.70;;
55732;SDS011;41637;52.364;9.910;2023-05-07T03:55:02;9.70;;;7.40;;
55732;SDS011;41637;52.364;9.910;2023-05-07T03:57:29;10.00;;;7.90;;
55732;SDS011;41637;52.364;9.910;2023-05-07T03:59:55;10.00;;;7.60;;
55732;SDS011;41637;52.364;9.910;2023-05-07T04:02:22;10.20;;;7.90;;
55732;SDS011;41637;52.364;9.910;2023-05-07T04:04:49;10.70;;;7.90;;
55732;SDS011;41637;52.364;9.910;2023-05-07T04:07:16;9.80;;;7.40;;
55732;SDS011;41637;52.364;9.910;2023-05-07T04:09:43;9.20;;;7.40;;
55732;SDS011;41637;52.364;9.910;2023-05-07T04:12:09;10.50;;;8.70;;
55732;SDS011;41637;52.364;9.910;2023-05-07T04:14:36;11.10;;;8.80;;
55732;SDS011;41637;52.364;9.910;2023-05-07T04:17:02;9.90;;;8.00;;
55732;SDS011;41637;52.364;9.910;2023-05-07T04:19:29;10.90;;;8.40;;
55732;SDS011;41637;52.364;9.910;2023-05-07T04:21:56;9.70;;;8.20;;
55732;SDS011;41637;52.364;9.910;2023-05-07T04:24:22;11.10;;;8.10;;
55732;SDS011;41637;52.364;9.910;2023-05-07T04:26:49;11.30;;;8.60;;
55732;SDS011;41637;52.364;9.910;2023-05-07T04:29:17;11.40;;;8.30;;
55732;SDS011;41637;52.364;9.910;2023-05-07T04:31:44;10.30;;;8.30;;
55732;SDS011;41637;52.364;9.910;2023-05-07T04:34:11;10.90;;;8.40;;
55732;SDS011;41637;52.364;9.910;2023-05-07T04:36:38;10.60;;;8.30;;
55732;SDS011;41637;52.364;9.910;2023-05-07T04:39:05;10.30;;;8.30;;
55732;SDS011;41637;52.364;9.910;2023-05-07T04:41:32;10.20;;;8.40;;
55732;SDS011;41637;52.364;9.910;2023-05-07T04:43:59;11.00;;;8.50;;
55732;SDS011;41637;52.364;9.910;2023-05-07T04:46:26;10.40;;;8.10;;
55732;SDS011;41637;52.364;9.910;2023-05-07T04:48:52;9.10;;;7.20;;
55732;SDS011;41637;52.364;9.910;2023-05-07T04:51:19;9.20;;;7.50;;
55732;SDS011;41637;52.364;9.910;2023-05-07T04:56:28;10.70;;;7.60;;
55732;SDS011;41637;52.364;9.910;2023-05-07T04:58:56;9.30;;;7.40;;
55732;SDS011;41637;52.364;9.910;2023-05-07T05:01:22;9.10;;;7.00;;
55732;SDS011;41637;52.364;9.910;2023-05-07T05:03:49;9.50;;;7.50;;
55732;SDS011;41637;52.364;9.910;2023-05-07T05:06:16;9.30;;;7.60;;
55732;SDS011;41637;52.364;9.910;2023-05-07T05:08:43;9.10;;;7.00;;
55732;SDS011;41637;52.364;9.910;2023-05-07T05:11:10;8.60;;;6.70;;
55732;SDS011;41637;52.364;9.910;2023-05-07T05:13:37;9.60;;;7.10;;
55732;SDS011;41637;52.364;9.910;2023-05-07T05:16:04;9.60;;;7.30;;
55732;SDS011;41637;52.364;9.910;2023-05-07T05:18:32;9.30;;;7.10;;
55732;SDS011;41637;52.364;9.910;2023-05-07T05:20:59;8.80;;;7.10;;
55732;SDS011;41637;52.364;9.910;2023-05-07T05:23:26;8.50;;;7.40;;
55732;SDS011;41637;52.364;9.910;2023-05-07T05:25:56;8.80;;;7.40;;
55732;SDS011;41637;52.364;9.910;2023-05-07T05:28:24;8.20;;;7.30;;
55732;SDS011;41637;52.364;9.910;2023-05-07T05:30:50;9.60;;;7.50;;
55732;SDS011;41637;52.364;9.910;2023-05-07T05:33:18;9.10;;;7.20;;
55732;SDS011;41637;52.364;9.910;2023-05-07T05:35:45;9.30;;;7.30;;
55732;SDS011;41637;52.364;9.910;2023-05-07T05:38:11;7.70;;;6.80;;
55732;SDS011;41637;52.364;9.910;2023-05-07T05:40:39;7.70;;;6.30;;
55732;SDS011;41637;52.364;9.910;2023-05-07T05:43:06;7.90;;;6.70;;
55732;SDS011;41637;52.364;9.910;2023-05-07T05:45:33;7.70;;;6.10;;
55732;SDS011;41637;52.364;9.910;2023-05-07T05:48:00;8.00;;;6.60;;
55732;SDS011;41637;52.364;9.910;2023-05-07T05:50:27;7.90;;;6.60;;
55732;SDS011;41637;52.364;9.910;2023-05-07T05:52:54;7.40;;;6.50;;
55732;SDS011;41637;52.364;9.910;2023-05-07T05:55:20;7.80;;;6.10;;
55732;SDS011;41637;52.364;9.910;2023-05-07T05:57:48;7.50;;;5.80;;
55732;SDS011;41637;52.364;9.910;2023-05-07T06:00:16;7.90;;;6.30;;
55732;SDS011;41637;52.364;9.910;2023-05-07T06:02:43;7.00;;;6.10;;
55732;SDS011;41637;52.364;9.910;2023-05-07T06:05:12;6.70;;;6.00;;
55732;SDS011;41637;52.364;9.910;2023-05-07T06:07:39;8.80;;;6.40;;
55732;SDS011;41637;52.364;9.910;2023-05-07T06:10:06;8.40;;;6.60;;
55732;SDS011;41637;52.364;9.910;2023-05-07T06:12:33;7.70;;;6.10;;
55732;SDS011;41637;52.364;9.910;2023-05-07T06:15:00;6.80;;;5.80;;
55732;SDS011;41637;52.364;9.910;2023-05-07T06:17:27;7.30;;;6.10;;
55732;SDS011;41637;52.364;9.910;2023-05-07T06:19:54;6.90;;;6.20;;
55732;SDS011;41637;52.364;9.910;2023-05-07T06:22:21;7.20;;;6.30;;
55732;SDS011;41637;52.364;9.910;2023-05-07T06:24:48;7.70;;;6.90;;
55732;SDS011;41637;52.364;9.910;2023-05-07T06:27:15;7.80;;;6.80;;
55732;SDS011;41637;52.364;9.910;2023-05-07T06:29:42;8.30;;;6.70;;
55732;SDS011;41637;52.364;9.910;2023-05-07T06:32:09;6.80;;;6.10;;
55732;SDS011;41637;52.364;9.910;2023-05-07T06:34:37;7.10;;;6.30;;
55732;SDS011;41637;52.364;9.910;2023-05-07T06:37:05;7.60;;;6.70;;
55732;SDS011;41637;52.364;9.910;2023-05-07T06:39:32;7.50;;;6.70;;
55732;SDS011;41637;52.364;9.910;2023-05-07T06:42:00;7.40;;;6.50;;
55732;SDS011;41637;52.364;9.910;2023-05-07T06:44:28;8.20;;;7.40;;
55732;SDS011;41637;52.364;9.910;2023-05-07T06:46:55;8.10;;;7.30;;
55732;SDS011;41637;52.364;9.910;2023-05-07T06:49:21;8.90;;;8.00;;
55732;SDS011;41637;52.364;9.910;2023-05-07T06:51:48;8.60;;;7.70;;
55732;SDS011;41637;52.364;9.910;2023-05-07T06:54:15;9.50;;;8.60;;
55732;SDS011;41637;52.364;9.910;2023-05-07T06:56:42;9.70;;;8.20;;
55732;SDS011;41637;52.364;9.910;2023-05-07T06:59:09;9.50;;;8.60;;
55732;SDS011;41637;52.364;9.910;2023-05-07T07:01:36;9.50;;;8.40;;
55732;SDS011;41637;52.364;9.910;2023-05-07T07:04:03;9.70;;;8.70;;
55732;SDS011;41637;52.364;9.910;2023-05-07T07:06:30;9.50;;;8.40;;
55732;SDS011;41637;52.364;9.910;2023-05-07T07:08:58;8.70;;;7.90;;
55732;SDS011;41637;52.364;9.910;2023-05-07T07:11:25;9.60;;;8.40;;
55732;SDS011;41637;52.364;9.910;2023-05-07T07:13:52;9.50;;;8.10;;
55732;SDS011;41637;52.364;9.910;2023-05-07T07:16:21;8.80;;;7.90;;
55732;SDS011;41637;52.364;9.910;2023-05-07T07:18:48;8.40;;;7.50;;
55732;SDS011;41637;52.364;9.910;2023-05-07T07:21:15;9.40;;;8.30;;
55732;SDS011;41637;52.364;9.910;2023-05-07T07:23:42;9.30;;;8.40;;
55732;SDS011;41637;52.364;9.910;2023-05-07T07:26:09;8.20;;;7.40;;
55732;SDS011;41637;52.364;9.910;2023-05-07T07:28:41;9.70;;;7.90;;
55732;SDS011;41637;52.364;9.910;2023-05-07T07:31:10;8.20;;;7.30;;
55732;SDS011;41637;52.364;9.910;2023-05-07T07:33:37;7.50;;;6.80;;
55732;SDS011;41637;52.364;9.910;2023-05-07T07:36:05;7.30;;;6.60;;
55732;SDS011;41637;52.364;9.910;2023-05-07T07:38:33;7.50;;;6.70;;
55732;SDS011;41637;52.364;9.910;2023-05-07T07:41:00;7.70;;;6.50;;
55732;SDS011;41637;52.364;9.910;2023-05-07T07:43:27;7.50;;;6.50;;
55732;SDS011;41637;52.364;9.910;2023-05-07T07:45:54;7.80;;;6.20;;
55732;SDS011;41637;52.364;9.910;2023-05-07T07:48:21;7.60;;;6.80;;
55732;SDS011;41637;52.364;9.910;2023-05-07T07:50:48;7.40;;;6.30;;
55732;SDS011;41637;52.364;9.910;2023-05-07T07:53:16;8.30;;;6.70;;
55732;SDS011;41637;52.364;9.910;2023-05-07T07:55:43;6.90;;;6.10;;
55732;SDS011;41637;52.364;9.910;2023-05-07T07:58:10;7.20;;;6.10;;
55732;SDS011;41637;52.364;9.910;2023-05-07T08:00:37;6.80;;;5.80;;
55732;SDS011;41637;52.364;9.910;2023-05-07T08:03:04;6.80;;;5.90;;
55732;SDS011;41637;52.364;9.910;2023-05-07T08:05:31;6.30;;;5.70;;
55732;SDS011;41637;52.364;9.910;2023-05-07T08:07:58;6.90;;;6.00;;
55732;SDS011;41637;52.364;9.910;2023-05-07T08:10:25;6.80;;;6.00;;
55732;SDS011;41637;52.364;9.910;2023-05-07T08:12:53;7.40;;;6.30;;
55732;SDS011;41637;52.364;9.910;2023-05-07T08:15:20;7.60;;;6.00;;
55732;SDS011;41637;52.364;9.910;2023-05-07T08:17:46;6.50;;;5.60;;
55732;SDS011;41637;52.364;9.910;2023-05-07T08:20:13;6.80;;;5.80;;
55732;SDS011;41637;52.364;9.910;2023-05-07T08:22:40;6.50;;;5.60;;
55732;SDS011;41637;52.364;9.910;2023-05-07T08:25:07;6.10;;;5.30;;
55732;SDS011;41637;52.364;9.910;2023-05-07T08:27:34;7.50;;;5.10;;
55732;SDS011;41637;52.364;9.910;2023-05-07T08:30:02;7.50;;;5.80;;
55732;SDS011;41637;52.364;9.910;2023-05-07T08:32:29;6.30;;;4.80;;
55732;SDS011;41637;52.364;9.910;2023-05-07T08:34:56;6.70;;;5.40;;
55732;SDS011;41637;52.364;9.910;2023-05-07T08:37:23;6.30;;;5.30;;
55732;SDS011;41637;52.364;9.910;2023-05-07T08:39:50;6.20;;;5.50;;
55732;SDS011;41637;52.364;9.910;2023-05-07T08:42:16;7.00;;;5.60;;
55732;SDS011;41637;52.364;9.910;2023-05-07T08:44:45;6.40;;;5.60;;
55732;SDS011;41637;52.364;9.910;2023-05-07T08:47:15;8.00;;;5.80;;
55732;SDS011;41637;52.364;9.910;2023-05-07T08:49:43;6.70;;;5.60;;
55732;SDS011;41637;52.364;9.910;2023-05-07T08:52:11;6.90;;;5.90;;
55732;SDS011;41637;52.364;9.910;2023-05-07T08:54:38;7.40;;;5.90;;
55732;SDS011;41637;52.364;9.910;2023-05-07T08:57:05;6.80;;;6.10;;
55732;SDS011;41637;52.364;9.910;2023-05-07T08:59:32;6.70;;;5.80;;
55732;SDS011;41637;52.364;9.910;2023-05-07T09:01:59;6.90;;;5.90;;
55732;SDS011;41637;52.364;9.910;2023-05-07T09:04:26;7.00;;;6.20;;
55732;SDS011;41637;52.364;9.910;2023-05-07T09:06:53;7.90;;;6.00;;
55732;SDS011;41637;52.364;9.910;2023-05-07T09:09:22;7.60;;;5.70;;
55732;SDS011;41637;52.364;9.910;2023-05-07T09:11:49;8.20;;;5.80;;
55732;SDS011;41637;52.364;9.910;2023-05-07T09:14:23;7.50;;;5.90;;
55732;SDS011;41637;52.364;9.910;2023-05-07T09:16:51;7.00;;;5.90;;
55732;SDS011;41637;52.364;9.910;2023-05-07T09:19:23;6.40;;;5.70;;
55732;SDS011;41637;52.364;9.910;2023-05-07T09:21:57;6.70;;;5.80;;
55732;SDS011;41637;52.364;9.910;2023-05-07T09:24:25;7.60;;;5.90;;
55732;SDS011;41637;52.364;9.910;2023-05-07T09:26:52;7.10;;;6.10;;
55732;SDS011;41637;52.364;9.910;2023-05-07T09:29:19;6.80;;;6.00;;
55732;SDS011;41637;52.364;9.910;2023-05-07T09:31:46;7.50;;;6.20;;
55732;SDS011;41637;52.364;9.910;2023-05-07T09:34:13;7.50;;;6.40;;
55732;SDS011;41637;52.364;9.910;2023-05-07T09:36:40;6.60;;;5.80;;
55732;SDS011;41637;52.364;9.910;2023-05-07T09:39:07;6.90;;;5.70;;
55732;SDS011;41637;52.364;9.910;2023-05-07T09:41:42;7.00;;;5.80;;
55732;SDS011;41637;52.364;9.910;2023-05-07T09:44:10;6.80;;;6.00;;
55732;SDS011;41637;52.364;9.910;2023-05-07T09:46:38;6.70;;;6.00;;
55732;SDS011;41637;52.364;9.910;2023-05-07T09:49:06;7.30;;;5.60;;
55732;SDS011;41637;52.364;9.910;2023-05-07T09:51:41;7.50;;;6.50;;
55732;SDS011;41637;52.364;9.910;2023-05-07T09:54:12;7.40;;;6.50;;
55732;SDS011;41637;52.364;9.910;2023-05-07T09:56:38;7.50;;;6.30;;
55732;SDS011;41637;52.364;9.910;2023-05-07T09:59:08;6.90;;;6.10;;
55732;SDS011;41637;52.364;9.910;2023-05-07T10:01:36;7.40;;;6.00;;
55732;SDS011;41637;52.364;9.910;2023-05-07T10:04:04;7.50;;;6.40;;
55732;SDS011;41637;52.364;9.910;2023-05-07T10:06:31;7.40;;;6.40;;
55732;SDS011;41637;52.364;9.910;2023-05-07T10:08:59;6.60;;;6.00;;
55732;SDS011;41637;52.364;9.910;2023-05-07T10:11:26;7.80;;;6.30;;
55732;SDS011;41637;52.364;9.910;2023-05-07T10:13:54;7.20;;;6.30;;
55732;SDS011;41637;52.364;9.910;2023-05-07T10:16:21;7.10;;;5.90;;
55732;SDS011;41637;52.364;9.910;2023-05-07T10:18:48;7.10;;;5.60;;
55732;SDS011;41637;52.364;9.910;2023-05-07T10:21:18;6.00;;;5.40;;
55732;SDS011;41637;52.364;9.910;2023-05-07T10:24:05;6.70;;;5.40;;
55732;SDS011;41637;52.364;9.910;2023-05-07T10:26:44;7.00;;;5.90;;
55732;SDS011;41637;52.364;9.910;2023-05-07T10:34:49;5.70;;;4.90;;
55732;SDS011;41637;52.364;9.910;2023-05-07T10:37:19;6.00;;;5.40;;
55732;SDS011;41637;52.364;9.910;2023-05-07T10:39:46;5.20;;;4.70;;
55732;SDS011;41637;52.364;9.910;2023-05-07T10:42:13;5.10;;;4.60;;
55732;SDS011;41637;52.364;9.910;2023-05-07T10:44:40;6.00;;;4.50;;
55732;SDS011;41637;52.364;9.910;2023-05-07T10:47:08;4.80;;;4.30;;
55732;SDS011;41637;52.364;9.910;2023-05-07T10:49:37;5.10;;;4.60;;
55732;SDS011;41637;52.364;9.910;2023-05-07T10:52:19;5.30;;;4.80;;
55732;SDS011;41637;52.364;9.910;2023-05-07T10:54:47;5.30;;;4.80;;
55732;SDS011;41637;52.364;9.910;2023-05-07T10:57:43;5.20;;;4.50;;
55732;SDS011;41637;52.364;9.910;2023-05-07T11:03:04;5.00;;;4.50;;
55732;SDS011;41637;52.364;9.910;2023-05-07T11:05:33;6.30;;;5.00;;
55732;SDS011;41637;52.364;9.910;2023-05-07T11:08:03;4.90;;;4.40;;
55732;SDS011;41637;52.364;9.910;2023-05-07T11:10:50;5.60;;;5.00;;
55732;SDS011;41637;52.364;9.910;2023-05-07T11:13:19;5.10;;;4.60;;
55732;SDS011;41637;52.364;9.910;2023-05-07T11:16:21;5.20;;;4.50;;
55732;SDS011;41637;52.364;9.910;2023-05-07T11:18:54;4.80;;;4.30;;
55732;SDS011;41637;52.364;9.910;2023-05-07T11:24:02;5.00;;;4.50;;
55732;SDS011;41637;52.364;9.910;2023-05-07T11:26:31;5.20;;;4.60;;
55732;SDS011;41637;52.364;9.910;2023-05-07T11:29:10;5.80;;;4.60;;
55732;SDS011;41637;52.364;9.910;2023-05-07T11:31:38;4.80;;;4.30;;
55732;SDS011;41637;52.364;9.910;2023-05-07T11:34:05;4.70;;;4.20;;
55732;SDS011;41637;52.364;9.910;2023-05-07T11:36:33;4.30;;;3.70;;
55732;SDS011;41637;52.364;9.910;2023-05-07T11:39:00;4.00;;;3.60;;
55732;SDS011;41637;52.364;9.910;2023-05-07T11:41:33;4.10;;;3.40;;
55732;SDS011;41637;52.364;9.910;2023-05-07T11:44:02;4.10;;;3.60;;
55732;SDS011;41637;52.364;9.910;2023-05-07T11:46:29;4.10;;;3.50;;
55732;SDS011;41637;52.364;9.910;2023-05-07T11:48:56;3.90;;;3.40;;
55732;SDS011;41637;52.364;9.910;2023-05-07T11:51:24;4.40;;;3.50;;
55732;SDS011;41637;52.364;9.910;2023-05-07T11:53:52;4.60;;;3.60;;
55732;SDS011;41637;52.364;9.910;2023-05-07T11:56:20;3.90;;;3.40;;
55732;SDS011;41637;52.364;9.910;2023-05-07T11:58:50;5.10;;;3.60;;
55732;SDS011;41637;52.364;9.910;2023-05-07T12:01:18;4.40;;;4.00;;
55732;SDS011;41637;52.364;9.910;2023-05-07T12:03:45;4.10;;;3.70;;
55732;SDS011;41637;52.364;9.910;2023-05-07T12:06:16;4.30;;;3.50;;
55732;SDS011;41637;52.364;9.910;2023-05-07T12:08:43;4.40;;;3.70;;
55732;SDS011;41637;52.364;9.910;2023-05-07T12:11:14;4.40;;;3.10;;
55732;SDS011;41637;52.364;9.910;2023-05-07T12:13:44;3.40;;;2.90;;
55732;SDS011;41637;52.364;9.910;2023-05-07T12:16:11;4.00;;;2.90;;
55732;SDS011;41637;52.364;9.910;2023-05-07T12:18:38;3.70;;;2.70;;
55732;SDS011;41637;52.364;9.910;2023-05-07T12:21:06;3.80;;;3.30;;
55732;SDS011;41637;52.364;9.910;2023-05-07T12:23:33;3.60;;;3.10;;
55732;SDS011;41637;52.364;9.910;2023-05-07T12:26:02;4.00;;;3.10;;
55732;SDS011;41637;52.364;9.910;2023-05-07T12:28:35;3.70;;;3.20;;
55732;SDS011;41637;52.364;9.910;2023-05-07T12:31:04;3.50;;;2.90;;
55732;SDS011;41637;52.364;9.910;2023-05-07T12:33:31;3.90;;;3.00;;
55732;SDS011;41637;52.364;9.910;2023-05-07T12:36:02;4.20;;;3.00;;
55732;SDS011;41637;52.364;9.910;2023-05-07T12:38:34;5.20;;;3.40;;
55732;SDS011;41637;52.364;9.910;2023-05-07T12:41:03;4.20;;;2.60;;
55732;SDS011;41637;52.364;9.910;2023-05-07T12:43:30;3.40;;;3.00;;
55732;SDS011;41637;52.364;9.910;2023-05-07T12:45:58;3.60;;;2.90;;
55732;SDS011;41637;52.364;9.910;2023-05-07T12:48:27;3.80;;;3.40;;
55732;SDS011;41637;52.364;9.910;2023-05-07T12:50:55;6.10;;;3.80;;
55732;SDS011;41637;52.364;9.910;2023-05-07T12:53:23;4.30;;;3.60;;
55732;SDS011;41637;52.364;9.910;2023-05-07T12:55:54;4.30;;;3.40;;
55732;SDS011;41637;52.364;9.910;2023-05-07T12:58:26;4.40;;;3.90;;
55732;SDS011;41637;52.364;9.910;2023-05-07T13:00:57;4.10;;;3.50;;
55732;SDS011;41637;52.364;9.910;2023-05-07T13:03:33;4.30;;;3.70;;
55732;SDS011;41637;52.364;9.910;2023-05-07T13:06:02;4.30;;;3.50;;
55732;SDS011;41637;52.364;9.910;2023-05-07T13:08:32;3.40;;;3.00;;
55732;SDS011;41637;52.364;9.910;2023-05-07T13:11:00;3.60;;;3.00;;
55732;SDS011;41637;52.364;9.910;2023-05-07T13:13:31;3.70;;;3.00;;
55732;SDS011;41637;52.364;9.910;2023-05-07T13:15:58;3.90;;;3.50;;
55732;SDS011;41637;52.364;9.910;2023-05-07T13:18:26;4.80;;;3.40;;
55732;SDS011;41637;52.364;9.910;2023-05-07T13:20:55;3.50;;;3.10;;
55732;SDS011;41637;52.364;9.910;2023-05-07T13:23:22;4.00;;;3.60;;
55732;SDS011;41637;52.364;9.910;2023-05-07T13:25:49;6.50;;;3.80;;
55732;SDS011;41637;52.364;9.910;2023-05-07T13:28:16;3.50;;;3.10;;
55732;SDS011;41637;52.364;9.910;2023-05-07T13:30:43;3.70;;;3.30;;
55732;SDS011;41637;52.364;9.910;2023-05-07T13:33:10;3.40;;;2.90;;
55732;SDS011;41637;52.364;9.910;2023-05-07T13:35:37;4.90;;;3.30;;
55732;SDS011;41637;52.364;9.910;2023-05-07T13:38:04;4.40;;;3.60;;
55732;SDS011;41637;52.364;9.910;2023-05-07T13:40:31;4.10;;;3.60;;
55732;SDS011;41637;52.364;9.910;2023-05-07T13:42:58;4.90;;;4.10;;
55732;SDS011;41637;52.364;9.910;2023-05-07T13:45:28;4.80;;;3.90;;
55732;SDS011;41637;52.364;9.910;2023-05-07T13:47:56;5.00;;;4.10;;
55732;SDS011;41637;52.364;9.910;2023-05-07T13:50:23;4.20;;;3.80;;
55732;SDS011;41637;52.364;9.910;2023-05-07T13:52:50;4.10;;;3.70;;
55732;SDS011;41637;52.364;9.910;2023-05-07T13:55:17;4.40;;;3.60;;
55732;SDS011;41637;52.364;9.910;2023-05-07T13:57:44;3.80;;;3.20;;
55732;SDS011;41637;52.364;9.910;2023-05-07T14:00:12;4.00;;;3.40;;
55732;SDS011;41637;52.364;9.910;2023-05-07T14:02:40;4.10;;;3.10;;
55732;SDS011;41637;52.364;9.910;2023-05-07T14:05:07;4.40;;;3.50;;
55732;SDS011;41637;52.364;9.910;2023-05-07T14:07:35;4.30;;;3.50;;
55732;SDS011;41637;52.364;9.910;2023-05-07T14:10:02;3.70;;;3.30;;
55732;SDS011;41637;52.364;9.910;2023-05-07T14:12:29;4.70;;;3.40;;
55732;SDS011;41637;52.364;9.910;2023-05-07T15:25:38;4.10;;;2.60;;
55732;SDS011;41637;52.364;9.910;2023-05-07T15:28:05;3.20;;;2.70;;
55732;SDS011;41637;52.364;9.910;2023-05-07T15:30:33;4.30;;;2.90;;
55732;SDS011;41637;52.364;9.910;2023-05-07T15:33:00;3.50;;;2.90;;
55732;SDS011;41637;52.364;9.910;2023-05-07T15:35:28;4.10;;;3.20;;
55732;SDS011;41637;52.364;9.910;2023-05-07T15:37:55;4.10;;;3.50;;
55732;SDS011;41637;52.364;9.910;2023-05-07T15:40:22;4.10;;;2.90;;
55732;SDS011;41637;52.364;9.910;2023-05-07T15:42:48;4.40;;;2.90;;
55732;SDS011;41637;52.364;9.910;2023-05-07T15:45:15;3.40;;;2.90;;
55732;SDS011;41637;52.364;9.910;2023-05-07T15:47:42;4.40;;;2.80;;
55732;SDS011;41637;52.364;9.910;2023-05-07T15:50:08;7.50;;;3.20;;
55732;SDS011;41637;52.364;9.910;2023-05-07T15:52:35;3.20;;;2.90;;
55732;SDS011;41637;52.364;9.910;2023-05-07T15:55:02;3.40;;;2.70;;
55732;SDS011;41637;52.364;9.910;2023-05-07T15:57:29;3.40;;;3.10;;
55732;SDS011;41637;52.364;9.910;2023-05-07T15:59:55;4.60;;;4.10;;
55732;SDS011;41637;52.364;9.910;2023-05-07T16:02:22;4.20;;;3.80;;
55732;SDS011;41637;52.364;9.910;2023-05-07T16:04:49;28.00;;;25.10;;
55732;SDS011;41637;52.364;9.910;2023-05-07T16:07:16;14.10;;;12.80;;
55732;SDS011;41637;52.364;9.910;2023-05-07T16:09:42;26.70;;;24.00;;